Relevés horaires Matro (Suisse)


Relevés horaires à Matro - Samedi 11 Juin 2022
Heure UTC1 Température [°C] Vent [km/h] Hum. [%] Pres.4 [hPa] Visi. [Km] Nébu. [octa] Préc.5 [mm] Cond.
2m. Res. Ros. Dir.2 Vit. Moy. Raf.3
23:00 11.5 8.9 -5.6 NO 24.1 -- 33.3 30 850(0.3/3h) -- -- -- --
22:00 11.5 8.8 -3.6 NNO 25.9 -- 31.5 34 850(0.5/3h) -- -- -- --
21:00 11.8 9.6 -4.5 NNO 20.4 -- 37.0 32 850(0.7/3h) -- -- -- --
20:00 12.4 9.8 -3.3 NNO 27.8 -- 37.0 33 850(0.7/3h) -- -- -- --
19:00 13.0 10.6 -2.7 NO 27.8 -- 37.0 33 850(0.6/3h) -- -- -- --
18:00 13.6 11.5 -2.4 NO 25.9 -- 42.6 33 850(0.5/3h) -- -- -- --
17:00 14.3 12.4 -3.3 NO 25.9 -- 40.7 29 850(0.2/3h) -- -- -- --
16:00 14.5 13 -2.3 NNO 20.4 -- 40.7 31 850(0.0/3h) -- -- -- --
15:00 14.6 13.2 -4.2 NNO 20.4 -- 31.5 27 850(0.1/3h) -- -- -- --
14:00 14.3 12.8 -4.5 NNO 20.4 -- 31.5 27 850(0.1/3h) -- -- -- --
13:00 13.9 12.4 -4.3 NNO 18.5 -- 31.5 28 850(0.3/3h) -- -- -- --
12:00 13.3 11.4 -4.7 NNO 22.2 -- 31.5 28 850(0.5/3h) -- -- -- --
11:00 13.2 12.1 -5.9 NNO 13.0 -- 25.9 26 850(0.8/3h) -- -- -- --
10:00 12.7 11.5 -6.8 NNO 13.0 -- 24.1 25 850(0.9/3h) -- -- -- --
09:00 12.1 11.2 -6.1 NNO 9.3 -- 25.9 27 850(0.9/3h) -- -- -- --
08:00 11.0 9.9 -7.9 NNO 9.3 -- 20.4 26 850(0.8/3h) -- -- -- --
07:00 10.6 8.5 -11.3 NNO 16.7 -- 25.9 20 850(0.7/3h) -- -- -- --
06:00 10.6 8.7 -12.9 NNO 14.8 -- 25.9 18 850(0.5/3h) -- -- -- --
05:00 9.6 8.3 -15.6 NNO 9.3 -- 20.4 15 850(0.3/3h) -- -- -- --
04:00 8.7 6.3 -13.7 NO 14.8 -- 18.5 19 850(-0.1/3h) -- -- -- --
03:00 9.3 7.6 -17.3 NNO 11.1 -- 25.9 13 850(-0.4/3h) -- -- -- --
02:00 9.3 6.8 -15.9 NO 16.7 -- 25.9 15 850(-0.3/3h) -- -- -- --
01:00 8.7 6.1 -10.8 NNO 16.7 -- 20.4 24 850(-0.1/3h) -- -- -- --
00:00 7.9 4.7 -6.5 NNO 20.4 -- 57.4 35 850(0.3/3h) -- -- -- --

1 Coordinated Universal Time. Actuellement il est 17:00 locale et 15:00 UTC.

2 Le vent souffle depuis la direction indiquée vers la direction oposée.

3 Les rafales max. sont disponible 40 min après l'heure du relevé.

4 Pour les stations d'altitude (plus de 600m) le géopotentiel du niveau le plus proche de la pression obligatoire est indiqué.

5 Les stations disposant d'un diffuseur peuvent indiquer "trace". Cela signifie que des précipitations ont touchés le sol mais que la quantité est inférieure à 0.1 mm.

Copyright

Les données affichées sur cette page sont la propriété exclusive de Météo Suisse.

Récapitulatif de la journée
Température [°C] Vent [km/h] Ensoleillement4 [h] Precipitations totale5 [mm] Pression [Hpa]
Min1 Max.2 Moy.3 Max. Min Max.
7.5 14.7 0 57.4 14 h 54 min 0 850.0 850.0

1 Température minimale relevée entre 18:00 UTC la veille et 18:00 UTC le jour donné.

2 Température maximale relevée entre 06:00 UTC le jour donné et 06:00 UTC le lendemain.

3 Vent moyen de la journée basé sur les relevés horaires.

4 Ensoleillement en heures relevé entre 06:00 UTC la veille et 06:00 UTC le jour donné.

5 Précipitations totales tombées entre 06:00 UTC la jour donné et 06:00 UTC le lendemain.

Graphiques horaires